Tiempo atmosférico en la estación meteorológica de Hellín, Albacete (520 m.)



Fecha
DESCASC
Temp. máxima en grados centígrados (hora)
DESCASC
Temp. mínima en grados centígrados (hora)
DESCASC
Temp. media en grados centígrados
DESCASC
Racha de viento máxima en m/sg (hora)
DESCASC
Velocidad máxima media en intervalos de 10 minutos(hora)
DESCASC
Precipitaciones diarias en mm
DESCASC
Precipitaciones de 00:00 a 06:00 en mm
DESCASC
Precipitaciones de 06:00 a 12:00 en mm
DESCASC
Precipitaciones de 12:00 a 18:00 en mm
DESCASC
Precipitaciones de 18:00 a 24:00 en mm
DESCASC
10-09-2019 22.9 (16:00) 14.6 (23:59) 18.8 16.39 (17:40) 8.61 (14:50) 0 0 0 0 0
14-09-2019 19.6 (13:20) 14.9 (00:00) 17.3 12.22 (04:40) 8.33 (02:00) 9.3 9.3 0 0 0
12-09-2019 18.9 (19:30) 13.7 (00:00) 16.3 14.17 (21:50) 7.5 (23:40) 37.1 0.3 0.4 30 6.4
30-08-2019 33.3 (16:10) 18.6 (00:00) 25.9 14.72 (17:50) 7.5 (17:50) 0.2 0 0 0 0.2
11-09-2019 19.1 (16:10) 12.9 (00:00) 16 13.33 (11:50) 7.5 (11:50) 0 0 0 0 0
31-08-2019 32.9 (16:20) 18.1 (00:00) 25.5 12.22 (17:00) 6.94 (17:10) 0 0 0 0 0
09-09-2019 29.2 (15:10) 16.2 (06:10) 22.7 10.28 (17:30) 6.39 (17:30) 0 0 0 0 0
27-08-2019 27.1 (17:20) 15.4 (00:00) 21.3 9.17 (01:10) 5.56 (01:20) 0.9 0.3 0.3 0.2 0.1
02-09-2019 26.9 (15:40) 20.7 (00:00) 23.8 9.44 (13:10) 5.56 (15:50) 0 0 0 0 0
21-08-2019 24.8 (17:00) 18.2 (00:00) 21.5 9.44 (08:00) 5.28 (08:00) 1.3 0.4 0.4 0.3 0.2
15-09-2019 24.2 (15:40) 17.4 (00:00) 20.8 9.44 (17:40) 5.28 (17:00) 1.7 0 0 0 1.7
29-08-2019 31.7 (15:40) 18.4 (00:00) 25.1 8.33 (20:00) 5 (20:00) 0 0 0 0 0
05-09-2019 28.5 (17:10) 18.5 (00:00) 23.5 8.61 (18:40) 5 (18:50) 0.1 0 0 0 0.1
25-08-2019 30.2 (16:40) 17 (00:00) 23.6 8.61 (19:40) 5 (19:40) 0 0 0 0 0
07-09-2019 28.1 (16:40) 18.5 (00:00) 23.3 8.33 (18:50) 4.72 (17:30) 0 0 0 0 0
22-08-2019 30.7 (17:20) 16.5 (00:00) 23.6 7.78 (18:30) 4.44 (18:40) 0.3 0.1 0.1 0.1 0
18-09-2019 29.5 (16:30) 16.5 (00:00) 23 7.22 (08:20) 4.44 (08:20) 0 0 0 0 0
03-09-2019 31 (16:10) 18.9 (00:00) 24.9 8.33 (20:20) 4.44 (20:20) 0 0 0 0 0
06-09-2019 28.8 (17:20) 18.9 (00:00) 23.8 8.61 (19:40) 4.17 (19:40) 0.1 0 0.1 0 0
04-09-2019 31.4 (16:30) 19.6 (00:00) 25.5 6.94 (17:30) 4.17 (18:50) 0 0 0 0 0
26-08-2019 27.9 (16:40) 18 (00:00) 22.9 8.33 (15:40) 4.17 (22:50) 0 0 0 0 0
24-08-2019 32 (18:10) 16.4 (00:00) 24.2 8.33 (18:50) 4.17 (18:50) 0 0 0 0 0
01-09-2019 33.4 (16:40) 17.8 (00:00) 25.6 7.22 (20:20) 3.89 (17:40) 0 0 0 0 0
28-08-2019 31.4 (17:50) 16 (00:00) 23.7 7.5 (19:50) 3.89 (20:00) 0.2 0.1 0.1 0 0
23-08-2019 30.2 (17:50) 15.9 (00:00) 23.1 7.22 (16:20) 3.89 (16:20) 0 0 0 0 0
08-09-2019 26.9 (16:40) 15.8 (00:00) 21.3 6.39 (15:40) 3.61 (15:20) 0 0 0 0 0
16-09-2019 28.1 (17:00) 18 (00:00) 23.1 5.83 (17:10) 3.61 (17:10) 0.1 0.1 0 0 0
17-09-2019 27.6 (16:30) 17.3 (00:00) 22.4 6.67 (17:40) 3.61 (17:40) 0.2 0 0 0 0.2
19-09-2019 27.3 (16:00) 16.7 (00:00) 22 7.5 (16:40) 3.61 (13:50) 0 0 0 0 0
13-09-2019 -- (--) -- (--) -- -- (--) -- (--) -- -- -- 0.9 9.7

Gráficas

Temp. máximas Temp. mínimas Temp. medias Precipitaciones Rachas de viento máximas Velocidades máximas media en intervalos de 10 minutos

Datos horarios

Fecha y hora oficial Temperatura (ºC) Velocidad del viento (km/h) Dirección del viento Racha (km/h) Dirección de racha Precipitación (mm) Presión (hPa) Tendencia (hPa) Humedad (%)
2019-09-19 23:00:00 19.9 5 Nordeste 12 Nordeste 0 949 1.5 78
2019-09-19 22:00:00 20.6 5 Nordeste 14 Norte 0 948.9 1.6 74
2019-09-19 21:00:00 21.6 7 Norte 21 Nordeste 0 948.1 1 60
2019-09-19 20:00:00 23.2 9 Nordeste 21 Nordeste 0 947.5 0.6 47
2019-09-19 19:00:00 24.9 10 Nordeste 21 Nordeste 0 947.3 0.1 44
2019-09-19 18:00:00 26.4 8 Norte 19 Norte 0 947.1 -0.8 42
2019-09-19 17:00:00 26.9 11 Nordeste 27 Este 0 946.9 -1.3 40
2019-09-19 16:00:00 27.3 8 Norte 24 Nordeste 0 947.2 -1.5 38
2019-09-19 15:00:00 26.8 7 Norte 26 Nordeste 0 947.9 -1.1 39
2019-09-19 14:00:00 26.3 10 Nordeste 23 Nordeste 0 948.2 -0.7 41
2019-09-19 13:00:00 25.4 8 Norte 19 Nordeste 0 948.7 0.1 46
2019-09-19 12:00:00 24 6 Nordeste 13 Nordeste 0 949 0.8 52
2019-09-19 11:00:00 22.3 3 Nordeste 9 Nordeste 0 948.9 1 62
2019-09-19 10:00:00 20.2 3 Nordeste 6 Oeste 0 948.6 0.9 85
2019-09-19 09:00:00 18.4 0 Calma 9 Oeste 0 948.2 1 94
2019-09-19 08:00:00 16.9 3 Sudoeste 7 Sudoeste 0 947.9 0.1 94
2019-09-19 07:00:00 16.8 0 Calma 8 Sudoeste 0 947.7 -0.2 93
2019-09-19 06:00:00 17.5 5 Oeste 8 Oeste 0 947.2 -0.8 92
2019-09-19 05:00:00 17.7 0 Calma 4 Sudoeste 0 947.8 -0.4 90
2019-09-19 04:00:00 18 0 Calma 0 Calma 0 947.9 -0.5 89
2019-09-19 03:00:00 18.5 0 Calma 3 Noroeste 0 948 -0.4 85
2019-09-19 02:00:00 19.3 0 Calma 2 Norte 0 948.2 0 82
2019-09-19 01:00:00 19.9 0 Calma 3 Oeste 0 948.4 0.5 81
2019-09-19 00:00:00 20 0 Calma 3 Sudeste 0 948.4 1.3 78
2019-09-18 23:00:00 21.1 2 Sudeste 9 Nordeste 0 948.2 1.8 72
2019-09-18 22:00:00 22.4 7 Nordeste 14 Nordeste 0 947.9 1.9 67
2019-09-18 21:00:00 23.6 6 Nordeste 15 Nordeste 0 947.1 1.2 63
2019-09-18 20:00:00 25.4 8 Nordeste 18 Nordeste 0 946.4 0.4 44
2019-09-18 19:00:00 27.2 8 Nordeste 20 Nordeste 0 946 -0.6 34
2019-09-18 18:00:00 28.7 4 Norte 13 Nordeste 0 945.9 -1.1 31
2019-09-18 17:00:00 29 6 Nordeste 15 Nordeste 0 946 -1.4 32
2019-09-18 16:00:00 28.8 5 Nordeste 13 Norte 0 946.6 -1.1 33
2019-09-18 15:00:00 28.1 3 Nordeste 14 Nordeste 0 947 -1 37
2019-09-18 14:00:00 27 0 Calma 14 Norte 0 947.4 -0.6 39
2019-09-18 13:00:00 25.7 3 Nordeste 11 Este 0 947.7 0.1 46
2019-09-18 12:00:00 23.9 3 Nordeste 11 Este 0 948 1.1 57
2019-09-18 11:00:00 22.4 0 Calma 8 Noroeste 0 948 1.6 61
2019-09-18 10:00:00 20 5 Sudoeste 17 Sudoeste 0 947.6 1.2 70
2019-09-18 09:00:00 17.6 7 Sudoeste 26 Sudoeste 0 946.9 0.5 82
2019-09-18 08:00:00 16.6 9 Sudoeste 22 Sudoeste 0 946.4 -0.1 86
2019-09-18 07:00:00 17 10 Sudoeste 18 Sudoeste 0 946.4 -0.3 87
2019-09-18 06:00:00 17.1 11 Sur 21 Sudoeste 0 946.4 -0.7 96
2019-09-18 05:00:00 16.8 3 Sudoeste 9 Sudoeste 0 946.5 -0.8 95
2019-09-18 04:00:00 17.5 0 Calma 13 Sudoeste 0 946.7 -0.9 94
2019-09-18 03:00:00 17.9 10 Sudoeste 18 Sudoeste 0 947.1 -0.9 95
2019-09-18 02:00:00 18.2 0 Calma 13 Sudoeste 0 947.3 -0.8 95
2019-09-18 01:00:00 18.4 3 Oeste 8 Sudeste 0 947.6 -0.3 95
2019-09-18 00:00:00 19.1 0 Calma 15 Oeste 0 948 0.6 95
2019-09-17 23:00:00 19.8 0 Calma 10 Sudoeste 0 948.1 1.2 93
2019-09-17 22:00:00 20.5 6 Sudoeste 15 Sudoeste 0 947.9 0.5 89
2019-09-17 21:00:00 21.2 3 Oeste 8 Sudoeste 0.1 947.4 0.9 86
2019-09-15 18:00:00 23.2 15 Noroeste 34 Noroeste 0 949.2 -1 74
2019-09-15 17:00:00 23.7 19 Noroeste 31 Noroeste 0 949.4 -1.3 72
2019-09-15 16:00:00 24 18 Noroeste 30 Norte 0 949.7 -1.2 71
2019-09-15 15:00:00 23.2 14 Oeste 27 Noroeste 0 950.2 -1.4 74
2019-09-15 14:00:00 23 13 Noroeste 25 Oeste 0 950.7 -0.7 76
2019-09-15 13:00:00 22.5 12 Oeste 26 Oeste 0 950.9 0.1 80
2019-09-15 12:00:00 20.6 13 Oeste 20 Oeste 0 951.6 1.5 94
2019-09-15 11:00:00 19.8 9 Sudoeste 18 Oeste 0 951.4 1.3 97
2019-09-15 10:00:00 19.4 6 Sudoeste 22 Oeste 0 950.8 1.1 97
2019-09-15 09:00:00 18.7 11 Oeste 26 Oeste 0 950.1 0 97
2019-09-15 08:00:00 18.5 10 Oeste 19 Oeste 0 950.1 -0.1 97
2019-09-15 07:00:00 18.1 5 Oeste 14 Oeste 0 949.7 -1.2 97
2019-09-15 06:00:00 17.5 2 Oeste 12 Oeste 0 950.1 -1.3 97
2019-09-15 05:00:00 18.1 5 Oeste 11 Sudoeste 0 950.2 -1.5 96
2019-09-15 04:00:00 18.5 5 Oeste 25 Oeste 0 950.9 -0.8 96
2019-09-15 03:00:00 18.9 12 Noroeste 24 Oeste 0 951.4 -0.8 96
2019-09-15 02:00:00 18.8 14 Oeste 28 Noroeste 0 951.7 -1 96
2019-09-15 01:00:00 19 15 Oeste 32 Noroeste 0 951.7 -0.7 96
2019-09-15 00:00:00 19 16 Oeste 28 Noroeste 0 952.2 0.6 95
2019-09-14 23:00:00 19 10 Noroeste 18 Oeste 0 952.7 1.6 91
2019-09-14 22:00:00 18.9 12 Oeste 27 Oeste 0 952.4 1.1 91
2019-09-14 21:00:00 19.2 16 Oeste 24 Noroeste 0 951.6 0.2 91
2019-09-14 20:00:00 19.1 16 Oeste 29 Noroeste 0 951.1 -0.6 89
2019-09-14 19:00:00 19.5 14 Oeste 26 Noroeste 0 951.3 -0.8 87
2019-09-14 18:00:00 19.3 13 Noroeste 25 Noroeste 0 951.4 -1.3 84
2019-09-14 17:00:00 19.2 14 Noroeste 30 Oeste 0 951.7 -1.2 82
2019-09-14 16:00:00 19.2 15 Oeste 27 Noroeste 0 952.1 -1.9 80
2019-09-14 15:00:00 19.5 13 Noroeste 28 Noroeste 0 952.7 -1.3 81
2019-09-14 14:00:00 19.4 15 Oeste 24 Noroeste 0 952.9 -0.2 81
2019-09-14 13:00:00 19.2 8 Oeste 15 Sudoeste 0 954 1.1 81
2019-09-14 12:00:00 18.4 8 Oeste 25 Oeste 0 954 1.3 81
2019-09-14 11:00:00 18.5 13 Noroeste 26 Noroeste 0 953.1 0.9 79
2019-09-14 10:00:00 17.5 3 Noroeste 12 Norte 0 952.9 0.4 84
2019-09-14 09:00:00 16.3 2 Sudoeste 9 Sudoeste 0 952.7 0.9 95
2019-09-14 08:00:00 15.3 4 Sudoeste 20 Norte 0 952.2 -0.2 92
2019-09-14 07:00:00 15.7 3 Norte 17 Noroeste 0 952.5 -2.4 89
2019-09-14 06:00:00 16.7 16 Noroeste 35 Noroeste 0 951.8 -2.3 83
2019-09-14 05:00:00 15.8 22 Oeste 44 Noroeste 2.6 952.4 -1.8 99
2019-09-14 04:00:00 15.7 11 Noroeste 31 Noroeste 0.6 954.9 -1.4 98
2019-09-14 03:00:00 16.1 10 Noroeste 44 Noroeste 0.3 954.1 -1.2 99
2019-09-14 02:00:00 15.8 30 Oeste 44 Noroeste 4.2 954.2 -0.9 99
2019-09-14 01:00:00 16.5 11 Sudoeste 23 Oeste 1.6 956.3 1.9 92
2019-09-14 00:00:00 16.8 12 Oeste 22 Oeste 0 955.3 1.3 92
2019-09-13 23:00:00 16.7 12 Oeste 38 Noroeste 0 955.1 1.8 88
2019-09-13 22:00:00 17.3 15 Noroeste 39 Noroeste 0.1 954.4 1.1 92
2019-09-13 21:00:00 16.8 22 Noroeste 45 Noroeste 3.4 954 1.3 99
2019-09-13 20:00:00 17.9 9 Noroeste 27 Noroeste 2.9 953.3 0.6 99
2019-09-13 19:00:00 16.7 10 Noroeste 37 Norte 3.3 953.3 0.7 96
2019-09-13 18:00:00 20.1 9 Oeste 21 Noroeste 0.7 952.7 -0.8 89
2019-09-13 17:00:00 20.4 13 Noroeste 25 Norte 0 952.7 -1.2 65
2019-09-13 16:00:00 21.9 7 Noroeste 21 Noroeste 0 952.6 -1.1 77
2019-09-13 15:00:00 19.4 9 Oeste 17 Oeste 0 953.5 0 91
2019-09-13 14:00:00 18.3 14 Noroeste 24 Noroeste 0.2 953.9 0.9 88
2019-09-13 13:00:00 19.5 2 Noroeste 15 Oeste 0 953.7 1.2 87
2019-09-13 12:00:00 16.8 8 Oeste 20 Oeste 0 953.5 1.4 99
2019-09-13 11:00:00 15 13 Oeste 34 Noroeste 1.3 953 1.1 99
2019-09-13 10:00:00 14.9 22 Noroeste 49 Oeste 1.9 952.5 -- 99
2019-09-13 09:00:00 15.4 22 Oeste 39 Oeste 3.5 952.1 -- 96
2019-09-13 08:00:00 16 15 Oeste 32 Oeste 0.1 951.9 -- 80
2019-09-13 07:00:00 -- -- -- -- -- -- -- -- --
2019-09-13 06:00:00 -- -- -- -- -- -- -- -- --
2019-09-13 05:00:00 -- -- -- -- -- -- -- -- --
2019-09-13 04:00:00 -- -- -- -- -- -- -- -- --
2019-09-13 03:00:00 -- -- -- -- -- -- -- -- --
2019-09-13 02:00:00 -- -- -- -- -- -- -- -- --
2019-09-13 01:00:00 -- -- -- -- -- -- -- -- --
2019-09-13 00:00:00 16 24 Oeste 45 Oeste 1.1 954.9 0.3 94
2019-09-12 23:00:00 15.4 19 Oeste 39 Noroeste 3.2 956.1 2.1 95
2019-09-12 22:00:00 16.5 20 Noroeste 51 Noroeste 2.1 956.5 2.4 84
2019-09-12 21:00:00 18.3 17 Noroeste 45 Noroeste 0 954.6 0.8 77
2019-09-12 20:00:00 18.4 23 Noroeste 41 Noroeste 0 954 -0.1 82
2019-09-12 19:00:00 18.6 21 Noroeste 45 Oeste 0 954.1 -0.5 86
2019-09-12 18:00:00 17.9 21 Noroeste 40 Oeste 0 953.8 -1.4 90
2019-09-12 17:00:00 17.4 13 Oeste 41 Noroeste 0.4 954.1 -0.9 96
2019-09-12 16:00:00 16.8 26 Oeste 46 Noroeste 1.8 954.6 -0.5 99
2019-09-12 15:00:00 17 9 Noroeste 25 Noroeste 2.6 955.2 0.4 99
2019-09-12 14:00:00 17.2 13 Noroeste 41 Noroeste 1.6 955 0.6 99
2019-09-12 13:00:00 16.5 12 Noroeste 27 Noroeste 23.6 955.1 1.9 99
2019-09-12 12:00:00 16.9 8 Noroeste 17 Oeste 0.1 954.8 2 99
2019-09-12 11:00:00 15.9 11 Noroeste 31 Oeste 0.1 954.4 2.3 99
2019-09-12 10:00:00 16.5 13 Oeste 25 Oeste 0 953.2 1.2 99
2019-09-12 09:00:00 16.6 12 Oeste 18 Oeste 0.1 952.8 0.9 96
2019-09-12 08:00:00 16.4 11 Oeste 19 Oeste 0.1 952.1 1 96
2019-09-12 07:00:00 16.4 7 Oeste 17 Norte 0 952 1.6 92
2019-09-12 06:00:00 16.8 8 Noroeste 43 Noroeste 0.1 951.9 0.7 91
2019-09-12 05:00:00 16.5 18 Oeste 46 Oeste 0 951.1 -1.5 99
2019-09-12 04:00:00 14.5 21 Sudoeste 37 Sudoeste 0.1 950.4 -2.5 99
2019-09-12 03:00:00 13.9 17 Sudoeste 35 Sudoeste 0.1 951.2 -2 98
2019-09-12 02:00:00 13.9 13 Sudoeste 20 Sudoeste 0 952.6 -0.3 93
2019-09-12 01:00:00 14.8 12 Sudoeste 18 Sudoeste 0 952.9 -0.4 78
2019-09-12 00:00:00 15.3 6 Oeste 21 Oeste 0 953.2 0.8 72
2019-09-11 23:00:00 15.4 14 Oeste 24 Oeste 0 952.9 1.6 71
2019-09-11 22:00:00 16.1 14 Oeste 25 Noroeste 0 953.3 2.7 68
2019-09-11 21:00:00 16.9 15 Noroeste 30 Oeste 0 952.4 2.1 64
2019-09-11 20:00:00 17.7 18 Noroeste 36 Noroeste 0 951.3 1.7 60
2019-09-11 19:00:00 18.5 18 Noroeste 37 Oeste 0 950.6 1.3 58
2019-09-11 18:00:00 18.4 18 Oeste 37 Oeste 0 950.3 0.9 59
2019-09-11 17:00:00 18.6 19 Oeste 36 Oeste 0 949.6 0.3 59
2019-09-11 16:00:00 18.9 19 Oeste 39 Oeste 0 949.3 0.6 59
2019-09-11 15:00:00 17.2 17 Sudoeste 36 Sudoeste 0 949.4 1.1 65
2019-09-11 14:00:00 17 21 Sudoeste 42 Sur 0 949.3 1.9 63
2019-09-11 13:00:00 18.4 22 Sur 39 Sudeste 0 948.7 1.9 55
2019-09-11 12:00:00 17.5 24 Sudeste 48 Sudeste 0 948.3 2.2 56
2019-09-11 11:00:00 16.6 21 Este 40 Este 0 947.4 1.4 57
2019-09-11 10:00:00 14.6 19 Este 35 Nordeste 0 946.8 0.9 63
2019-09-11 09:00:00 13.6 18 Nordeste 34 Este 0 946.1 1 66
2019-09-11 08:00:00 13.4 18 Este 31 Este 0 946 0.8 63
2019-09-11 07:00:00 13.4 14 Nordeste 32 Este 0 945.9 0 59
2019-09-11 06:00:00 13.8 18 Este 33 Nordeste 0 945.1 -0.8 59
2019-09-11 05:00:00 14 21 Este 40 Nordeste 0 945.2 -0.7 59
2019-09-11 04:00:00 13.4 18 Este 36 Nordeste 0 945.9 -0.3 61
2019-09-11 03:00:00 12.9 17 Nordeste 39 Nordeste 0 945.9 -0.1 61
2019-09-11 02:00:00 13.3 21 Nordeste 41 Este 0 945.9 0.3 58
2019-09-11 01:00:00 13.8 17 Nordeste 41 Este 0 946.2 0.9 51
2019-09-11 00:00:00 14.6 19 Este 44 Nordeste 0 946 1.4 46
2019-09-10 23:00:00 15.9 16 Este 40 Este 0 945.6 2 41
2019-09-10 22:00:00 17 19 Este 48 Este 0 945.3 2.5 37
2019-09-10 21:00:00 18.2 19 Este 40 Este 0 944.6 1.9 33
2019-09-10 20:00:00 19.4 18 Este 52 Nordeste 0 943.6 1.4 30
2019-09-10 19:00:00 20.9 27 Nordeste 54 Norte 0 942.8 0.4 28
2019-09-10 18:00:00 21.8 29 Nordeste 59 Nordeste 0 942.7 0.1 26
2019-09-10 17:00:00 22.7 26 Este 49 Nordeste 0 942.2 -0.7 25
2019-09-10 16:00:00 22.7 24 Nordeste 54 Nordeste 0 942.4 -0.8 26
2019-09-10 15:00:00 22 26 Nordeste 54 Nordeste 0 942.6 -0.8 28
2019-09-10 14:00:00 22.2 22 Nordeste 51 Este 0 942.9 -0.9 32
2019-09-10 13:00:00 21.7 21 Nordeste 41 Norte 0 943.2 0.5 34
2019-09-10 12:00:00 20.6 20 Nordeste 37 Nordeste 0 943.4 1.5 42
2019-09-10 11:00:00 18.9 19 Nordeste 38 Nordeste 0 943.8 2 44
2019-09-10 10:00:00 19 18 Norte 39 Norte 0 942.7 1.1 47
2019-09-10 09:00:00 19.6 24 Norte 44 Norte 0 941.9 0 48
2019-09-10 08:00:00 18.5 14 Norte 22 Norte 0 941.8 -1 53
2019-09-10 07:00:00 19.6 13 Noroeste 24 Noroeste 0 941.6 -1.8 51
2019-09-10 06:00:00 20.9 16 Noroeste 32 Noroeste 0 941.9 -2.1 51
2019-09-10 05:00:00 19.1 3 Norte 8 Nordeste 0 942.8 -1.9 54
2019-09-10 04:00:00 18.8 0 Calma 4 Norte 0 943.4 -1.5 61
2019-09-10 03:00:00 18.7 0 Calma 8 Nordeste 0 944 -1.2 58
2019-09-10 02:00:00 19.8 2 Nordeste 7 Nordeste 0 944.7 -0.7 57
2019-09-10 01:00:00 20 0 Calma 3 Sur 0 944.9 -0.4 54
2019-09-10 00:00:00 20.4 0 Calma 5 Noroeste 0 945.2 0.3 52
2019-09-09 23:00:00 20.7 4 Noroeste 6 Norte 0 945.4 0.5 49
2019-09-09 22:00:00 22 0 Calma 4 Oeste 0 945.3 0.3 45
2019-09-09 21:00:00 23.4 3 Oeste 14 Oeste 0 944.9 -0.2 40
2019-09-09 20:00:00 25.6 10 Sudoeste 19 Sudoeste 0 944.9 -0.4 36
2019-09-09 19:00:00 26.7 12 Sudoeste 24 Sudoeste 0 945 -0.8 37
2019-09-09 18:00:00 26.9 17 Sudoeste 37 Sudoeste 0 945.1 -1.3 38
2019-09-09 17:00:00 29 12 Sudoeste 26 Sudoeste 0 945.3 -1.8 33
2019-09-09 16:00:00 25.8 9 Oeste 24 Sudoeste 0 945.8 -2.3 42
2019-09-09 15:00:00 28.7 4 Sur 22 Sudoeste 0 946.4 -2.4 33
2019-09-09 14:00:00 27.7 7 Sur 20 Sudoeste 0 947.1 -1.8 37
2019-09-09 13:00:00 26.3 8 Sudoeste 18 Sudoeste 0 948.1 -0.8 45
2019-09-09 12:00:00 23.6 8 Sudoeste 15 Sudoeste 0 948.8 -0.1 56
2019-09-09 11:00:00 21.1 5 Sudoeste 12 Oeste 0 948.9 0.2 76
2019-09-09 10:00:00 19.3 0 Calma 6 Sudoeste 0 948.9 0.4 96
2019-09-09 09:00:00 17.4 2 Sur 5 Sudoeste 0 948.9 0.4 99
2019-09-09 08:00:00 16.4 0 Calma 2 Norte 0 948.7 -0.1 99
2019-09-09 07:00:00 16.5 0 Calma 3 Oeste 0 948.5 -0.4 99
2019-09-09 06:00:00 16.3 0 Calma 3 Este 0 948.5 -0.7 98
2019-09-09 05:00:00 16.7 0 Calma 5 Sudeste 0 948.8 -0.6 98
2019-09-09 04:00:00 16.9 0 Calma 5 Sudoeste 0 948.9 -0.3 96
2019-09-09 03:00:00 17.6 0 Calma 6 Sudeste 0 949.2 0 95
2019-09-09 02:00:00 18.2 4 Sur 17 Sur 0 949.4 0.1 91
2019-09-09 01:00:00 18.6 6 Sudoeste 13 Sudoeste 0 949.2 0.1 86
2019-09-09 00:00:00 19.2 6 Sur 14 Sudoeste 0 949.2 1.1 80
2019-09-08 23:00:00 19.9 8 Sudoeste 18 Sudoeste 0 949.3 1.9 71
2019-09-08 22:00:00 20.9 8 Sudoeste 16 Sur 0 949.1 1.8 61
2019-09-08 21:00:00 22 9 Sur 20 Sur 0 948.1 1.1 52
2019-09-08 20:00:00 23.8 6 Sur 19 Sudoeste 0 947.4 0.2 46
2019-09-08 19:00:00 24.8 9 Sudoeste 20 Sur 0 947.3 -0.3 42
2019-09-08 18:00:00 25.5 12 Sudoeste 20 Sudoeste 0 947 -1.5 40
2019-09-08 17:00:00 26.3 10 Sudoeste 23 Oeste 0 947.2 -1.5 39
2019-09-08 16:00:00 26.2 9 Sur 23 Sudoeste 0 947.6 -1.7 41
2019-09-08 15:00:00 25.6 8 Sur 22 Sur 0 948.5 -1.4 42
2019-09-08 14:00:00 24.8 9 Sudoeste 22 Sudoeste 0 948.7 -1.3 47
2019-09-08 13:00:00 23.3 6 Sur 18 Sudoeste 0 949.3 -0.2 54
2019-09-08 12:00:00 21.9 9 Sudoeste 21 Sudoeste 0 949.9 0.7 60
2019-09-08 11:00:00 20.9 6 Sur 13 Sudoeste 0 950 1.2 74
2019-09-08 10:00:00 19 3 Sur 10 Nordeste 0 949.5 0.8 94
2019-09-08 09:00:00 17 5 Nordeste 8 Nordeste 0 949.2 0.5 98
2019-09-08 08:00:00 16.1 3 Nordeste 7 Nordeste 0 948.8 -0.3 98
2019-09-08 07:00:00 16.1 3 Este 5 Nordeste 0 948.7 -0.5 97
2019-09-08 06:00:00 16.5 0 Calma 4 Nordeste 0 948.7 -0.9 96
2019-09-08 05:00:00 16.4 0 Calma 2 Nordeste 0 949.1 -0.6 93
2019-09-08 04:00:00 17.6 0 Calma 9 Sur 0 949.2 -1.1 92
2019-09-08 03:00:00 17.9 4 Sudoeste 11 Sudoeste 0 949.6 -1.3 91
2019-09-08 02:00:00 17.9 5 Sur 14 Sur 0 949.7 -0.9 90
2019-09-08 01:00:00 18.4 8 Sudoeste 17 Sudoeste 0 950.3 0.1 87
2019-09-08 00:00:00 18.6 10 Sur 28 Sur 0 950.9 1.6 85
2019-09-07 23:00:00 18.9 15 Sudoeste 29 Sur 0 950.6 2.2 82
2019-09-07 22:00:00 19.5 14 Sudoeste 27 Sudoeste 0 950.2 2.3 80
2019-09-07 21:00:00 20.8 14 Sudoeste 26 Sudoeste 0 949.3 2 71
2019-09-07 20:00:00 21.8 13 Sur 26 Sur 0 948.4 0.6 65
2019-09-07 19:00:00 23.7 13 Sur 30 Sudoeste 0 947.9 -0.6 52
2019-09-07 18:00:00 26.7 12 Sur 28 Sudoeste 0 947.3 -1.7 41
2019-09-07 17:00:00 28 9 Sur 24 Sudoeste 0 947.8 -1.9 38
2019-09-07 16:00:00 27.6 12 Sudoeste 24 Sudoeste 0 948.5 -1.5 40
2019-09-07 15:00:00 26.8 12 Sudoeste 29 Sudoeste 0 949 -1.4 44
2019-09-07 14:00:00 25.5 10 Sur 23 Sudoeste 0 949.7 -1.1 51
2019-09-07 13:00:00 24.3 13 Sudoeste 23 Sudoeste 0 950 -0.7 57
2019-09-07 12:00:00 22.5 12 Sur 22 Sudoeste 0 950.4 -0.2 67
2019-09-07 11:00:00 20.8 6 Sur 22 Sudoeste 0 950.8 0.7 83
2019-09-07 10:00:00 19.5 10 Sudoeste 19 Sudoeste 0 950.7 0.8 95
2019-09-07 09:00:00 19.2 10 Sudoeste 21 Sudoeste 0 950.6 0.9 96
2019-09-07 08:00:00 18.6 5 Sur 13 Sudoeste 0 950.1 0.2 96
2019-09-07 07:00:00 18.7 8 Sudoeste 16 Sudoeste 0 949.9 0 95
2019-09-07 06:00:00 18.8 9 Sudoeste 21 Sudoeste 0 949.7 -0.6 95
2019-09-07 05:00:00 19.2 8 Sur 20 Sur 0 949.9 -0.7 95
2019-09-07 04:00:00 19.4 10 Sur 20 Sudoeste 0 949.9 -0.3 93
2019-09-07 03:00:00 19.4 6 Sudoeste 14 Sur 0 950.3 0 92
2019-09-07 02:00:00 19.3 8 Sudoeste 20 Sudoeste 0 950.6 0.3 92
2019-09-07 01:00:00 19.4 11 Sudoeste 19 Sudoeste 0 950.2 0.7 92
2019-09-07 00:00:00 20.2 6 Sudoeste 15 Sudoeste 0 950.3 1.5 88
2019-09-06 23:00:00 20.6 10 Sudoeste 16 Sudoeste 0 950.3 2.8 84
2019-09-06 22:00:00 21 10 Sur 23 Sudoeste 0 949.5 2.4 82
2019-09-06 21:00:00 22.2 12 Sur 26 Sur 0 948.8 1.8 69
2019-09-06 20:00:00 24.3 12 Sur 31 Sudoeste 0 947.5 0.1 53
2019-09-06 19:00:00 27 13 Sudoeste 25 Sudoeste 0 947.1 -0.9 44
2019-09-06 18:00:00 27.9 12 Sudoeste 24 Sudoeste 0 947 -1.8 42
2019-09-06 17:00:00 27.6 9 Sudeste 25 Sur 0 947.4 -2 42
2019-09-06 16:00:00 27.3 10 Sudoeste 24 Sudoeste 0 948 -1.9 44
2019-09-06 15:00:00 26.3 9 Sur 30 Sur 0 948.8 -1.4 49
2019-09-06 14:00:00 25.9 11 Sur 28 Sudoeste 0 949.4 -0.7 53
2019-09-06 13:00:00 24.5 12 Sudoeste 23 Sudoeste 0 949.9 -0.2 62
2019-09-06 12:00:00 23.6 12 Sudoeste 26 Sudoeste 0 950.2 0.4 67
2019-09-06 11:00:00 21 9 Sudoeste 16 Sudoeste 0 950.1 0.3 92
2019-09-06 10:00:00 20.3 10 Sudoeste 17 Sudoeste 0.1 950.1 0.6 97
2019-09-06 09:00:00 19.5 7 Sur 14 Sudoeste 0 949.8 0.6 98
2019-09-06 08:00:00 19 2 Sur 8 Sur 0 949.8 0.5 98
2019-09-06 07:00:00 19.2 0 Calma 8 Sudoeste 0 949.5 0.1 97
2019-09-06 06:00:00 19.5 2 Sur 8 Sur 0 949.2 -0.5 95
2019-09-06 05:00:00 19.2 5 Sur 13 Sur 0 949.3 -0.8 95
2019-09-06 04:00:00 19.4 5 Sur 15 Sur 0 949.4 -0.6 95
2019-09-06 03:00:00 19.6 7 Sudoeste 13 Sudoeste 0 949.7 -0.3 94
2019-09-06 02:00:00 19.9 6 Sudoeste 15 Sudoeste 0 950.1 0.5 92
2019-09-06 01:00:00 20.1 4 Sur 14 Sur 0 950 0.8 92
2019-09-06 00:00:00 20.1 4 Sur 16 Sur 0 950 1.4 89
2019-09-05 23:00:00 20.2 11 Sudoeste 22 Sur 0.1 949.6 1.2 87
2019-09-05 22:00:00 21 7 Sur 21 Sur 0 949.2 1.6 77
2019-09-05 21:00:00 21.9 7 Sur 21 Sur 0 948.6 1.4 74
2019-09-05 20:00:00 23.9 11 Sur 29 Sur 0 948.4 0.9 57
2019-09-05 19:00:00 25.8 15 Sudoeste 31 Sudoeste 0 947.6 -0.6 53
2019-09-05 18:00:00 27.5 14 Sudoeste 24 Sudoeste 0 947.2 -1.4 46
2019-09-05 17:00:00 28.4 9 Sudoeste 20 Sudoeste 0 947.5 -1.6 46
2019-09-05 16:00:00 27.2 7 Sudoeste 20 Sudoeste 0 948.2 -1.2 50
2019-09-05 15:00:00 26.5 6 Oeste 17 Sudoeste 0 948.6 -1.1 52
2019-09-05 14:00:00 25.8 4 Oeste 15 Sudoeste 0 949.1 -0.5 57
2019-09-05 13:00:00 24.4 5 Sudoeste 15 Sudoeste 0 949.4 0 63
2019-09-05 12:00:00 22.3 3 Sudeste 13 Este 0 949.7 0.7 74
2019-09-05 11:00:00 20.9 7 Este 14 Este 0 949.6 0.8 87
2019-09-05 10:00:00 20.4 3 Nordeste 6 Este 0 949.4 0.8 95
2019-09-05 09:00:00 20.4 0 Calma 4 Sur 0 949 0.9 95
2019-09-05 08:00:00 20.2 0 Calma 5 Sur 0 948.8 0.7 95
2019-09-05 07:00:00 20 0 Calma 6 Sudoeste 0 948.6 0.7 95
2019-09-05 06:00:00 19.9 0 Calma 4 Nordeste 0 948.1 0 95
2019-09-05 05:00:00 19 0 Calma 5 Nordeste 0 948.1 -0.3 95
2019-09-05 04:00:00 19.4 0 Calma 4 Noroeste 0 947.9 -0.7 94
2019-09-05 03:00:00 19.7 0 Calma 5 Noroeste 0 948.1 -0.4 91
2019-09-05 02:00:00 20.1 0 Calma 4 Sur 0 948.4 -0.1 86
2019-09-05 01:00:00 21.2 0 Calma 6 Sudoeste 0 948.6 0.3 84
2019-09-05 00:00:00 21.9 4 Sudoeste 11 Sudoeste 0 948.5 0.7 81
2019-09-04 23:00:00 22.8 5 Sur 12 Sur 0 948.5 1.2 75
2019-09-04 22:00:00 23.9 4 Sur 13 Sur 0 948.3 1.1 69
2019-09-04 21:00:00 25 6 Sur 22 Sudoeste 0 947.8 0.2 63
2019-09-04 20:00:00 26.5 8 Sur 23 Sudoeste 0 947.3 -0.4 55
2019-09-04 19:00:00 27.7 13 Sudoeste 24 Sur 0 947.2 -0.9 47
2019-09-04 18:00:00 28.9 14 Sudoeste 25 Sur 0 947.6 -1.4 42
2019-09-04 17:00:00 31 8 Sur 22 Sur 0 947.7 -2 38
2019-09-04 16:00:00 30.7 10 Sudoeste 20 Sudoeste 0 948.1 -2.3 39
2019-09-04 15:00:00 29.9 8 Sudoeste 17 Sudoeste 0 949 -2 44
2019-09-04 14:00:00 28.3 8 Sudoeste 17 Sudeste 0 949.7 -1.4 49
2019-09-04 13:00:00 26.3 6 Sudoeste 17 Sudeste 0 950.4 -0.8 57
2019-09-04 12:00:00 24.6 5 Sur 14 Sur 0 951 0 67
2019-09-04 11:00:00 22.5 5 Sur 10 Sudoeste 0 951.1 0.1 82
2019-09-04 10:00:00 21 5 Sudoeste 10 Sudoeste 0 951.2 0.5 95
2019-09-04 09:00:00 20.2 2 Sur 8 Sudeste 0 951 0.5 98
2019-09-04 08:00:00 19.9 4 Sudoeste 8 Sudoeste 0 951 0.2 98
2019-09-04 07:00:00 20 5 Sur 9 Sudoeste 0 950.7 -0.5 98
2019-09-04 06:00:00 19.8 0 Calma 5 Sur 0 950.5 -1.1 98
2019-09-04 05:00:00 19.8 3 Sudoeste 7 Sudoeste 0 950.8 -1 98
2019-09-04 04:00:00 19.6 4 Oeste 8 Oeste 0 951.2 -0.7 98
2019-09-04 03:00:00 19.6 3 Oeste 8 Sudoeste 0 951.6 -0.2 97
2019-09-04 02:00:00 20 4 Sudoeste 9 Sur 0 951.8 0.1 95
2019-09-04 01:00:00 20.7 5 Sudoeste 13 Sudoeste 0 951.9 0.5 93
2019-09-04 00:00:00 21.2 5 Sudoeste 12 Sur 0 951.8 1 87
2019-09-03 23:00:00 22.1 8 Sudoeste 14 Sur 0 951.7 1.2 80
2019-09-03 22:00:00 23.3 8 Sudoeste 17 Sudoeste 0 951.4 1.1 71
2019-09-03 21:00:00 24.4 10 Sudoeste 30 Sur 0 950.8 0.6 64
2019-09-03 20:00:00 25.8 15 Sudoeste 27 Sudoeste 0 950.5 0.4 54
2019-09-03 19:00:00 27.9 12 Sudoeste 26 Sudoeste 0 950.3 0 45
2019-09-03 18:00:00 29.9 12 Sudoeste 26 Sudoeste 0 950.2 -1 39
2019-09-03 17:00:00 30.7 8 Sur 22 Sur 0 950.1 -1.6 39
2019-09-03 16:00:00 30.8 7 Sur 28 Sudoeste 0 950.3 -1.9 39
2019-09-03 15:00:00 29.9 7 Sudoeste 18 Sudoeste 0 951.2 -1.4 42
2019-09-03 14:00:00 28.5 9 Sudoeste 22 Sudoeste 0 951.7 -1 47
2019-09-03 13:00:00 26.6 6 Sudoeste 19 Sudoeste 0 952.2 -0.3 54
2019-09-03 12:00:00 25.3 6 Sudoeste 19 Sudoeste 0 952.6 0.2 61
2019-09-03 11:00:00 23.6 7 Sudoeste 15 Oeste 0 952.7 0.6 72
2019-09-03 10:00:00 21.8 7 Sudoeste 13 Sudoeste 0 952.5 0.7 89
2019-09-03 09:00:00 20.3 0 Calma 5 Sur 0 952.4 0.9 94
2019-09-03 08:00:00 19.7 2 Este 8 Este 0 952.1 0.7 95
2019-09-03 07:00:00 19.7 2 Sudeste 10 Este 0 951.8 0.1 95
2019-09-03 06:00:00 19.6 3 Sudeste 8 Sudeste 0 951.5 -0.3 96
2019-09-03 05:00:00 19.6 3 Sur 8 Sudeste 0 951.4 -0.4 97
2019-09-03 04:00:00 19.5 0 Calma 5 Sudoeste 0 951.7 0.4 95
2019-09-03 03:00:00 19.3 3 Sudoeste 12 Sudoeste 0 951.8 0.5 95
2019-09-03 02:00:00 19.1 3 Sudoeste 7 Sudoeste 0 951.8 0.9 90
2019-09-03 01:00:00 19.8 5 Sudoeste 9 Sudoeste 0 951.3 1.4 84
2019-09-03 00:00:00 20.9 6 Sudoeste 16 Sudoeste 0 951.3 2.2 81
2019-09-02 23:00:00 21.4 5 Sudoeste 17 Sudoeste 0 950.9 2.4 82
2019-09-02 22:00:00 22.6 5 Sur 15 Sudoeste 0 949.9 1.6 78
2019-09-02 21:00:00 24 4 Sur 18 Sudoeste 0 949.1 0.1 66
2019-09-02 20:00:00 25.2 6 Sur 18 Sur 0 948.5 -0.8 57
2019-09-02 19:00:00 25.6 10 Sudoeste 20 Sudoeste 0 948.3 -0.9 55
2019-09-02 18:00:00 25.6 10 Sudoeste 22 Sudoeste 0 949 -1 55
2019-09-02 17:00:00 26 12 Sudoeste 33 Sudoeste 0 949.3 -1.1 52
2019-09-02 16:00:00 26.3 16 Sudoeste 31 Sudoeste 0 949.2 -1.3 51
2019-09-02 15:00:00 26 17 Sudoeste 33 Sudoeste 0 950 -0.3 55
2019-09-02 14:00:00 25.1 15 Sudoeste 34 Sudoeste 0 950.4 0.1 61
2019-09-02 13:00:00 26.2 17 Sudoeste 33 Sudoeste 0 950.5 0.8 61
2019-09-02 12:00:00 24.7 12 Sur 30 Sudoeste 0 950.3 1.2 72
2019-09-02 11:00:00 23.3 9 Sudoeste 19 Sudoeste 0 950.3 2 82
2019-09-02 10:00:00 22.1 7 Sudoeste 13 Sudoeste 0 949.7 2.1 84
2019-09-02 09:00:00 21.2 6 Sudeste 14 Este 0 949.1 1.8 87
2019-09-02 08:00:00 20.7 8 Sudeste 23 Sudeste 0 948.3 1.8 87
2019-09-02 07:00:00 21.2 13 Sudeste 23 Sudeste 0 947.6 1 88
2019-09-02 06:00:00 22 10 Este 21 Este 0 947.3 0.8 78
2019-09-02 05:00:00 22.7 10 Sudeste 20 Sudeste 0 946.5 0.1 70
2019-09-02 04:00:00 23.2 4 Sudeste 13 Este 0 946.6 0.5 68
2019-09-02 03:00:00 23 5 Este 11 Nordeste 0 946.5 0 71
2019-09-02 02:00:00 23.5 9 Sudeste 19 Sudeste 0 946.4 0.4 67
2019-09-02 01:00:00 25.2 8 Sudeste 14 Este 0 946.1 0.2 47
2019-09-02 00:00:00 25.6 6 Este 18 Sudoeste 0 946.5 1.2 46
2019-09-01 23:00:00 26.3 10 Sur 20 Sudoeste 0 946 1.3 43
2019-09-01 22:00:00 26.7 0 Calma 20 Sur 0 945.9 1.7 42
2019-09-01 21:00:00 27.7 11 Sur 26 Sudoeste 0 945.3 1.1 39
2019-09-01 20:00:00 30.1 8 Sur 24 Sudoeste 0 944.7 0.1 35
2019-09-01 19:00:00 31.4 13 Sur 23 Sudoeste 0 944.2 -0.8 33
2019-09-01 18:00:00 32.3 12 Sudoeste 26 Sudoeste 0 944.2 -1.1 32
2019-09-01 17:00:00 32.8 14 Sudoeste 24 Sudoeste 0 944.6 -1.3 30
2019-09-01 16:00:00 31.1 9 Sudoeste 18 Sudoeste 0 945 -1.5 33
2019-09-01 15:00:00 31.5 3 Sudoeste 18 Sudoeste 0 945.3 -1.6 32
2019-09-01 14:00:00 31.4 4 Sudeste 15 Sudeste 0 945.9 -0.9 35
2019-09-01 13:00:00 29.6 3 Sur 14 Sur 0 946.5 -0.3 41
2019-09-01 12:00:00 28 6 Sudoeste 11 Sudoeste 0 946.9 -0.1 48
2019-09-01 11:00:00 25.5 2 Sudoeste 7 Sudoeste 0 946.8 0 59
2019-09-01 10:00:00 23.4 2 Sudoeste 7 Sudoeste 0 946.8 0.3 70
2019-09-01 09:00:00 21 0 Calma 8 Noroeste 0 947 0.8 84
2019-09-01 08:00:00 18.6 3 Este 6 Este 0 946.8 0.3 90
2019-09-01 07:00:00 18.3 0 Calma 3 Este 0 946.5 -0.2 87
2019-09-01 06:00:00 19.6 0 Calma 6 Nordeste 0 946.2 -1 83
2019-09-01 05:00:00 19.8 5 Este 6 Este 0 946.5 -0.9 82
2019-09-01 04:00:00 20.7 3 Nordeste 5 Nordeste 0 946.7 -1 77
2019-09-01 03:00:00 21.1 0 Calma -- -- 0 947.2 -0.5 73
2019-09-01 02:00:00 21.6 0 Calma -- -- 0 947.4 -0.4 69
2019-09-01 01:00:00 22.7 0 Calma 3 Sur 0 947.7 0.3 65
2019-09-01 00:00:00 22.9 0 Calma 5 Sudeste 0 947.7 0.8 63
2019-08-31 23:00:00 23.9 2 Sur 9 Sudoeste 0 947.8 1.6 61
2019-08-31 22:00:00 25.1 3 Sudoeste 12 Sudoeste 0 947.4 1.6 55
2019-08-31 21:00:00 26.4 5 Sudoeste 22 Sudoeste 0 946.9 1.1 49
2019-08-31 20:00:00 29 12 Sudoeste 22 Sudoeste 0 946.2 0.2 37
2019-08-31 19:00:00 31 6 Sur 24 Sudeste 0 945.8 -0.6 31
2019-08-31 18:00:00 30.6 15 Sudeste 43 Sudeste 0 945.8 -1.8 30
2019-08-31 17:00:00 30.5 17 Este 44 Este 0 946 -2.4 31
2019-08-31 16:00:00 32.3 4 Sudeste 19 Este 0 946.4 -2.5 29
2019-08-31 15:00:00 30.6 8 Sudeste 18 Este 0 947.6 -1.5 34
2019-08-31 14:00:00 30.2 4 Este 19 Este 0 948.4 -0.7 37
2019-08-31 13:00:00 28.9 3 Sur 16 Sur 0 948.9 -0.2 42
2019-08-31 12:00:00 27.1 2 Sudeste 10 Sudeste 0 949.1 0.1 48
2019-08-31 11:00:00 26 0 Calma 6 Noroeste 0 949.1 0.6 51
2019-08-31 10:00:00 23.6 0 Calma 6 Nordeste 0 949.1 0.7 62
2019-08-31 09:00:00 20.6 0 Calma 3 Norte 0 949 0.9 78
2019-08-31 08:00:00 18.3 2 Oeste 14 Nordeste 0 948.5 -0.1 84
2019-08-31 07:00:00 18.5 4 Norte 13 Nordeste 0 948.4 -0.8 84
2019-08-31 06:00:00 19.1 8 Nordeste 13 Nordeste 0 948.1 -1.4 85
2019-08-31 05:00:00 19.4 8 Nordeste 10 Nordeste 0 948.6 -1.5 84
2019-08-31 04:00:00 19.5 3 Nordeste 8 Nordeste 0 949.2 -1.3 82
2019-08-31 03:00:00 20.2 3 Nordeste 7 Nordeste 0 949.5 -1.3 75
2019-08-31 02:00:00 21.3 3 Norte 9 Nordeste 0 950.1 -1.2 73
2019-08-31 01:00:00 21.6 3 Norte 6 Norte 0 950.5 -0.2 70
2019-08-31 00:00:00 21.6 0 Calma -- -- 0 950.8 0.2 68
2019-08-30 23:00:00 22.4 0 Calma 5 Oeste 0 951.3 1.7 65
2019-08-30 22:00:00 23.5 4 Sudoeste 6 Sudoeste 0.1 950.7 1.2 58
2019-08-30 21:00:00 25 0 Calma 10 Sudeste 0 950.6 0.7 53
2019-08-30 20:00:00 25.2 3 Este 21 Este 0 949.6 0.7 52
2019-08-30 19:00:00 26 10 Este 24 Este 0.1 949.5 -0.1 48
2019-08-30 18:00:00 24.6 15 Este 53 Sudeste 0 949.9 -0.4 49
2019-08-30 17:00:00 32.6 14 Sudoeste 30 Sudoeste 0 948.9 -2.1 28
2019-08-30 16:00:00 32.9 9 Sudoeste 26 Sudoeste 0 949.6 -2.3 30
2019-08-30 15:00:00 31.6 4 Sur 19 Sudoeste 0 950.3 -1.8 33
2019-08-30 14:00:00 30.5 5 Sur 18 Sudoeste 0 951 -1.1 36
2019-08-30 13:00:00 28.8 6 Sur 15 Sur 0 951.9 -0.2 41
2019-08-30 12:00:00 27.2 4 Sur 12 Sudoeste 0 952.1 -0.2 50
2019-08-30 11:00:00 25 3 Sudoeste 8 Sudoeste 0 952.1 0.2 61
2019-08-30 10:00:00 23.1 3 Sur 8 Nordeste 0 952.1 0.6 68
2019-08-30 09:00:00 20.7 4 Nordeste 9 Nordeste 0 952.3 1.2 82
2019-08-30 08:00:00 18.7 5 Nordeste 9 Norte 0 951.9 0.6 88
2019-08-30 07:00:00 18.9 5 Nordeste 7 Nordeste 0 951.5 0 85
2019-08-30 06:00:00 19.2 5 Nordeste 8 Nordeste 0 951.1 -0.5 84
2019-08-30 05:00:00 19.4 4 Este 7 Este 0 951.3 -0.6 84
2019-08-30 04:00:00 19.7 0 Calma 5 Nordeste 0 951.5 -0.5 83
2019-08-30 03:00:00 19.3 0 Calma 4 Este 0 951.6 -0.3 82
2019-08-30 02:00:00 20.8 0 Calma 4 Noroeste 0 951.9 0 77
2019-08-30 01:00:00 20.7 0 Calma 3 Este 0 952 0.6 74
2019-08-30 00:00:00 22.2 0 Calma 8 Sur 0 951.9 0.7 68
2019-08-29 23:00:00 22.7 0 Calma 10 Sudoeste 0 951.9 1.2 64
2019-08-29 22:00:00 23.8 5 Sur 19 Sudoeste 0 951.4 1.5 60
2019-08-29 21:00:00 24.9 8 Sudoeste 26 Sudoeste 0 951.2 1.4 57
2019-08-29 20:00:00 26.6 18 Sudoeste 30 Sudoeste 0 950.7 0.7 51
2019-08-29 19:00:00 28.4 10 Sur 28 Sur 0 949.9 -0.6 40
2019-08-29 18:00:00 29.8 13 Sudoeste 24 Sur 0 949.8 -1 32
2019-08-29 17:00:00 30.8 8 Oeste 21 Sudoeste 0 950 -1 29
2019-08-29 16:00:00 30.7 9 Sudoeste 23 Sudoeste 0 950.5 -0.9 30
2019-08-29 15:00:00 31.3 9 Sudoeste 21 Sudoeste 0 950.8 -0.9 31
2019-08-29 14:00:00 29.4 8 Sur 19 Sur 0 951 -0.4 39
2019-08-29 13:00:00 28 6 Sur 16 Sudoeste 0 951.4 0.1 45
2019-08-29 12:00:00 26.2 4 Sudoeste 12 Sudoeste 0 951.7 0.8 57
2019-08-29 11:00:00 23.7 0 Calma 8 Nordeste 0 951.4 1 76
2019-08-29 10:00:00 21.4 6 Nordeste 9 Nordeste 0 951.3 1 98
2019-08-29 09:00:00 19.6 0 Calma 8 Nordeste 0 950.9 0.9 99
2019-08-29 08:00:00 18.7 0 Calma 4 Nordeste 0 950.4 0.4 98
2019-08-29 07:00:00 18.4 0 Calma 2 Este 0 950.3 0.2 98
2019-08-29 06:00:00 19.4 0 Calma 4 Nordeste 0 950 -0.3 98
2019-08-29 05:00:00 19.6 0 Calma -- -- 0 950 -0.3 97
2019-08-29 04:00:00 20 0 Calma 6 Noroeste 0 950.1 -0.3 96
2019-08-29 03:00:00 20.4 0 Calma 4 Sudeste 0 950.3 0.1 93
2019-08-29 02:00:00 21.1 0 Calma 5 Sur 0 950.3 0.4 91
2019-08-29 01:00:00 21.7 0 Calma 7 Sur 0 950.4 1.2 87
2019-08-29 00:00:00 22.4 6 Sudoeste 11 Oeste 0 950.2 2 85
2019-08-28 23:00:00 23.3 5 Sudoeste 10 Sudoeste 0 949.9 2.3 77
2019-08-28 22:00:00 24.4 2 Sur 20 Sudoeste 0 949.2 2 68
2019-08-28 21:00:00 25.5 9 Sur 24 Sur 0 948.2 0.9 60
2019-08-28 20:00:00 28.1 14 Sudoeste 27 Sudoeste 0 947.6 0.1 42
2019-08-28 19:00:00 30.8 9 Nordeste 16 Nordeste 0 947.2 -0.6 25
2019-08-28 18:00:00 30.8 11 Este 20 Este 0 947.3 -1 25
2019-08-28 17:00:00 30.9 10 Nordeste 22 Este 0 947.5 -1.2 26
2019-08-28 16:00:00 30.7 4 Nordeste 20 Norte 0 947.8 -1.3 28
2019-08-28 15:00:00 30.6 9 Noroeste 22 Norte 0 948.3 -0.9 29
2019-08-28 14:00:00 29.6 8 Norte 19 Norte 0 948.7 -0.4 31
2019-08-28 13:00:00 28.1 8 Nordeste 17 Sudeste 0 949.1 0 37
2019-08-28 12:00:00 26.5 5 Nordeste 14 Este 0 949.2 0.3 44
2019-08-28 11:00:00 24.4 2 Norte 9 Norte 0 949.1 0.5 53
2019-08-28 10:00:00 21.5 0 Calma 10 Nordeste 0 949.1 0.5 69
2019-08-28 09:00:00 18.2 6 Nordeste 17 Nordeste 0 948.9 0.5 89
2019-08-28 08:00:00 16.1 0 Calma 8 Nordeste 0.1 948.6 0.2 94
2019-08-28 07:00:00 16.6 3 Nordeste 8 Nordeste 0 948.6 0.2 93
2019-08-28 06:00:00 16.8 3 Este 6 Nordeste 0 948.4 -0.3 92
2019-08-28 05:00:00 16.8 0 Calma -- -- 0 948.4 -0.7 88
2019-08-28 04:00:00 17.6 0 Calma 4 Nordeste 0 948.4 -0.7 83
2019-08-28 03:00:00 18.3 0 Calma 7 Nordeste 0 948.7 0 79
2019-08-28 02:00:00 18.7 0 Calma 6 Este 0 949.1 0.6 75
2019-08-28 01:00:00 19.3 3 Este 5 Este 0.1 949.1 1.1 73
2019-08-28 00:00:00 20 3 Nordeste 8 Este 0 948.7 1.5 72
2019-08-27 23:00:00 21.4 5 Sudeste 12 Sudeste 0 948.5 1.9 67
2019-08-27 22:00:00 21.6 7 Sudeste 18 Este 0 948 1.9 66
2019-08-27 21:00:00 22.6 6 Oeste 15 Sudoeste 0 947.2 1.1 59
2019-08-27 20:00:00 25.2 8 Sudoeste 15 Sur 0.1 946.6 0.5 46
2019-08-27 19:00:00 26.5 9 Nordeste 18 Nordeste 0 946.1 -0.3 40
2019-08-27 18:00:00 25.9 10 Norte 17 Norte 0 946.1 -0.9 37
2019-08-27 17:00:00 26.7 8 Norte 28 Norte 0 946.1 -0.9 39
2019-08-27 16:00:00 25.4 16 Norte 28 Norte 0.1 946.4 -0.8 44
2019-08-27 15:00:00 23.2 15 Norte 33 Norte 0 947 -0.3 55
2019-08-27 14:00:00 26.6 9 Nordeste 23 Nordeste 0 947 -0.4 40
2019-08-27 13:00:00 25.7 9 Norte 18 Noroeste 0.1 947.2 0.3 45
2019-08-27 12:00:00 23.3 6 Norte 13 Nordeste 0 947.3 0.1 63
2019-08-27 11:00:00 21.9 4 Nordeste 10 Nordeste 0.1 947.4 0.4 71
2019-08-27 10:00:00 19 3 Noroeste 11 Nordeste 0 946.9 0.4 86
2019-08-27 09:00:00 16.7 6 Nordeste 12 Nordeste 0.1 947.2 0.3 96
2019-08-27 08:00:00 15.6 6 Nordeste 12 Nordeste 0 947 0.6 97
2019-08-27 07:00:00 15.5 0 Calma 16 Nordeste 0.1 946.5 0.5 97
2019-08-27 06:00:00 15.8 9 Nordeste 15 Nordeste 0 946.9 0.5 96
2019-08-27 05:00:00 16 4 Este 22 Norte 0.1 946.4 -0.9 96
2019-08-27 04:00:00 16.1 0 Calma 10 Noroeste 0.1 946 -2.1 97
2019-08-27 03:00:00 16.4 0 Calma 20 Norte 0 946.4 -0.7 97
2019-08-27 02:00:00 17 11 Nordeste 33 Norte 0.1 947.3 -0.3 96
2019-08-27 01:00:00 20.7 6 Oeste 13 Oeste 0 948.1 1.6 88
2019-08-27 00:00:00 20.7 6 Sudeste 24 Sur 0 947.1 1.7 87
2019-08-26 23:00:00 21.1 13 Sudoeste 23 Sur 0 947.6 2.7 85
2019-08-26 22:00:00 21.8 9 Sur 21 Sur 0 946.5 1.3 78
2019-08-26 21:00:00 22.9 10 Sur 20 Sudoeste 0 945.4 -0.7 69
2019-08-26 20:00:00 24.5 13 Sur 26 Sur 0 944.9 -1.2 56
2019-08-26 19:00:00 26.8 8 Sudeste 22 Sur 0 945.2 -1.2 45
2019-08-26 18:00:00 27.4 7 Sur 25 Sur 0 946.1 -0.8 44
2019-08-26 17:00:00 27 10 Sur 26 Sudeste 0 946.1 -1.7 47
2019-08-26 16:00:00 26.6 10 Sudeste 30 Sudeste 0 946.4 -1.8 51
2019-08-26 15:00:00 26.7 12 Sur 24 Sur 0 946.9 -1.1 53
2019-08-26 14:00:00 24.4 8 Sur 17 Sur 0 947.8 -0.3 61
2019-08-26 13:00:00 23.4 8 Sur 20 Sur 0 948.2 0.7 68
2019-08-26 12:00:00 21.9 5 Sudeste 14 Sudeste 0 948 1 78
2019-08-26 11:00:00 20.5 6 Este 17 Este 0 948.1 0.9 89
2019-08-26 10:00:00 19.9 7 Este 16 Este 0 947.5 -0.1 92
2019-08-26 09:00:00 19.1 6 Este 12 Este 0 947 -0.5 97
2019-08-26 08:00:00 18.2 3 Este 8 Este 0 947.2 -0.7 97
2019-08-26 07:00:00 18.2 0 Calma 8 Noroeste 0 947.6 -0.6 97
2019-08-26 06:00:00 18.7 0 Calma 7 Este 0 947.5 -0.4 96
2019-08-26 05:00:00 18.8 0 Calma 4 Sur 0 947.9 -0.5 95
2019-08-26 04:00:00 19.5 0 Calma 8 Este 0 948.2 -0.4 95
2019-08-26 03:00:00 19.7 3 Sudeste 13 Sur 0 947.9 -1 95
2019-08-26 02:00:00 19.6 4 Sudeste 20 Sur 0 948.4 -0.4 95
2019-08-26 01:00:00 19.9 9 Sur 19 Sur 0 948.6 0.3 94
2019-08-26 00:00:00 20.6 5 Sur 17 Sur 0 948.9 1.2 88
2019-08-25 23:00:00 21.7 8 Sur 13 Sur 0 948.8 1.7 79
2019-08-25 22:00:00 23 6 Sudeste 23 Sur 0 948.3 1.3 62
2019-08-25 21:00:00 24.2 14 Sur 28 Sur 0 947.7 0.5 46
2019-08-25 20:00:00 26.4 17 Sudeste 31 Sur 0 947.1 -0.3 34
2019-08-25 19:00:00 28.4 14 Sur 27 Sudeste 0 947 -0.7 32
2019-08-25 18:00:00 29.7 9 Sudeste 30 Sudeste 0 947.2 -0.9 31
2019-08-25 17:00:00 30 11 Sudeste 28 Este 0 947.4 -1.1 32
2019-08-25 16:00:00 29.3 12 Sudeste 29 Sudeste 0 947.7 -1.5 34
2019-08-25 15:00:00 28.8 7 Este 24 Sudeste 0 948.1 -1.6 35
2019-08-25 14:00:00 28.1 10 Sudeste 22 Este 0 948.5 -1.4 40
2019-08-25 13:00:00 27 4 Sudeste 28 Sudeste 0 949.2 -0.6 44
2019-08-25 12:00:00 25.6 6 Sudeste 17 Sudeste 0 949.7 -0.3 51
2019-08-25 11:00:00 23.6 0 Calma 9 Nordeste 0 949.9 0.2 59
2019-08-25 10:00:00 21.5 6 Norte 10 Norte 0 949.8 0.5 77
2019-08-25 09:00:00 19.3 5 Noroeste 10 Noroeste 0 950 1 97
2019-08-25 08:00:00 17.3 7 Noroeste 11 Noroeste 0 949.7 0.4 99
2019-08-25 07:00:00 17.3 6 Noroeste 10 Norte 0 949.3 -0.3 99
2019-08-25 06:00:00 18 0 Calma 8 Norte 0 949 -0.8 99
2019-08-25 05:00:00 18.4 0 Calma 3 Norte 0 949.3 -0.8 97
2019-08-25 04:00:00 18.6 0 Calma -- -- 0 949.6 -0.6 96
2019-08-25 03:00:00 19.4 0 Calma 8 Sudeste 0 949.8 -0.4 96
2019-08-25 02:00:00 19.5 0 Calma 8 Sudeste 0 950.1 0.2 95
2019-08-25 01:00:00 20 2 Sur 8 Sudeste 0 950.2 0.7 90
2019-08-25 00:00:00 21.3 5 Sudeste 16 Sudeste 0 950.2 1.4 87
2019-08-24 23:00:00 21.9 8 Sudeste 14 Sudeste 0 949.9 1.6 80
2019-08-24 22:00:00 23.4 8 Sudeste 18 Este 0 949.5 1.3 68
2019-08-24 21:00:00 24.9 6 Este 21 Este 0 948.8 0.7 56
2019-08-24 20:00:00 27.6 6 Este 27 Sudeste 0 948.3 -0.2 43
2019-08-24 19:00:00 29.9 13 Este 30 Este 0 948.2 -1 33
2019-08-24 18:00:00 31.7 8 Sudeste 17 Nordeste 0 948.1 -1.5 27
2019-08-24 17:00:00 31.5 3 Este 23 Norte 0 948.5 -1.4 27
2019-08-24 16:00:00 30.2 8 Nordeste 19 Nordeste 0 949.2 -1.5 29
2019-08-24 15:00:00 29.5 6 Norte 19 Norte 0 949.6 -1.4 29
2019-08-24 14:00:00 29 3 Norte 21 Este 0 949.9 -1.3 32
2019-08-24 13:00:00 26.8 4 Norte 12 Nordeste 0 950.7 -0.2 38
2019-08-24 12:00:00 25.3 4 Norte 13 Norte 0 951 0.4 48
2019-08-24 11:00:00 22.8 6 Norte 13 Norte 0 951.2 0.6 59
2019-08-24 10:00:00 21.3 5 Norte 10 Norte 0 950.9 0.5 63
2019-08-24 09:00:00 18.9 0 Calma 10 Noroeste 0 950.6 0.3 80
2019-08-24 08:00:00 16.5 3 Noroeste 10 Noroeste 0 950.6 0.3 87
2019-08-24 07:00:00 16.7 5 Noroeste 9 Noroeste 0 950.4 -0.1 87
2019-08-24 06:00:00 17.2 2 Noroeste 10 Noroeste 0 950.3 -0.4 84
2019-08-24 05:00:00 17.9 6 Noroeste 9 Oeste 0 950.3 -0.7 84
2019-08-24 04:00:00 18 5 Oeste 8 Noroeste 0 950.5 -0.4 84
2019-08-24 03:00:00 18.5 2 Noroeste 5 Noroeste 0 950.7 -0.2 79
2019-08-24 02:00:00 18.8 0 Calma -- -- 0 951 0 79
2019-08-24 01:00:00 19.4 0 Calma 4 Sur 0 950.9 0.4 78
2019-08-24 00:00:00 20.3 0 Calma 16 Sudeste 0 950.9 1.4 78
2019-08-23 23:00:00 21.5 8 Sudeste 21 Este 0 951 2 70
2019-08-23 22:00:00 22.9 10 Este 23 Este 0 950.5 1.3 53
2019-08-23 21:00:00 25 8 Este 21 Este 0 949.5 0.2 38
2019-08-23 20:00:00 27.7 10 Este 22 Sudeste 0 949 -0.6 30
2019-08-23 19:00:00 29.1 8 Este 21 Este 0 949.2 -0.4 28
2019-08-23 18:00:00 29.8 11 Sudeste 22 Este 0 949.3 -1.3 27
2019-08-23 17:00:00 29.9 11 Sudeste 26 Sudeste 0 949.6 -1.5 28
2019-08-23 16:00:00 29 10 Este 26 Este 0 949.6 -2.2 30
2019-08-23 15:00:00 29.1 9 Este 24 Este 0 950.6 -1.6 30
2019-08-23 14:00:00 28 8 Este 22 Este 0 951.1 -1.2 33
2019-08-23 13:00:00 26.1 6 Nordeste 19 Este 0 951.8 -0.3 40
2019-08-23 12:00:00 25.2 8 Este 16 Sudeste 0 952.2 0.3 45
2019-08-23 11:00:00 23.3 4 Este 9 Nordeste 0 952.3 0.5 59
2019-08-23 10:00:00 21.1 4 Oeste 12 Oeste 0 952.1 0.8 73
2019-08-23 09:00:00 18.7 6 Noroeste 12 Noroeste 0 951.9 0.5 93
2019-08-23 08:00:00 16.3 6 Oeste 13 Oeste 0 951.8 0.1 97
2019-08-23 07:00:00 15.9 6 Noroeste 8 Noroeste 0 951.3 -0.5 97
2019-08-23 06:00:00 16.8 0 Calma 5 Noroeste 0 951.4 -0.5 96
2019-08-23 05:00:00 17.5 0 Calma 3 Noroeste 0 951.7 -0.5 95
2019-08-23 04:00:00 17.8 2 Noroeste 4 Noroeste 0 951.8 -0.3 93
2019-08-23 03:00:00 18 0 Calma 3 Noroeste 0 951.9 -0.1 89
2019-08-23 02:00:00 19 0 Calma 5 Este 0 952.2 0.4 82
2019-08-23 01:00:00 19.8 3 Este 14 Este 0 952.1 0.7 72
2019-08-23 00:00:00 20.3 4 Este 10 Este 0 952 1.3 66
2019-08-22 23:00:00 21.2 7 Sudeste 13 Sudeste 0 951.8 1.6 64
2019-08-22 22:00:00 22.8 8 Este 18 Este 0 951.4 1.7 53
2019-08-22 21:00:00 23.8 9 Este 21 Este 0 950.7 0.9 52
2019-08-22 20:00:00 26.2 14 Este 26 Este 0 950.2 0.3 48
2019-08-22 19:00:00 28.5 14 Este 28 Sudeste 0 949.7 -0.4 40
2019-08-22 18:00:00 29.6 6 Nordeste 21 Sudeste 0 949.8 -0.8 35
2019-08-22 17:00:00 29.6 7 Este 24 Norte 0 949.9 -1.2 36
2019-08-22 16:00:00 28.8 6 Nordeste 26 Nordeste 0 950.1 -1.5 36
2019-08-22 15:00:00 28.9 4 Este 21 Este 0 950.6 -1.5 37
2019-08-22 14:00:00 27.5 3 Norte 17 Nordeste 0.1 951.1 -0.8 40
2019-08-22 13:00:00 25.6 5 Norte 17 Norte 0 951.6 -0.2 47
2019-08-22 12:00:00 23.8 6 Norte 15 Norte 0 952.1 0.3 57
2019-08-22 11:00:00 22.5 7 Norte 13 Norte 0 951.9 0.6 66
2019-08-22 10:00:00 20.6 5 Norte 11 Oeste 0 951.8 0.8 83
2019-08-22 09:00:00 18.9 2 Norte 13 Oeste 0 951.8 1.2 98
2019-08-22 08:00:00 16.8 5 Noroeste 9 Noroeste 0.1 951.3 0.6 98
2019-08-22 07:00:00 16.9 2 Noroeste 10 Noroeste 0 951 0.3 98
2019-08-22 06:00:00 17.1 6 Noroeste 10 Oeste 0 950.6 0 97
2019-08-22 05:00:00 17.3 3 Noroeste 9 Noroeste 0 950.7 -0.4 97
2019-08-22 04:00:00 17.7 3 Noroeste 8 Noroeste 0.1 950.7 -1.2 96
2019-08-22 03:00:00 18 0 Calma -- -- 0 950.6 -1.4 95
2019-08-22 02:00:00 18.4 0 Calma 7 Sur 0 951.1 -0.3 92
2019-08-22 01:00:00 19.6 2 Noroeste 10 Noroeste 0 951.9 0.9 87
2019-08-22 00:00:00 20.6 7 Noroeste 12 Norte 0 952 2 82
2019-08-21 23:00:00 21.4 2 Nordeste 10 Nordeste 0.1 951.4 1.7 75
2019-08-21 22:00:00 21.8 0 Calma 15 Este 0 951 1.6 72
2019-08-21 21:00:00 22.5 10 Este 19 Este 0 950 0.6 68
2019-08-21 20:00:00 23.8 5 Nordeste 13 Norte 0.1 949.7 0.1 70
2019-08-21 19:00:00 24.5 5 Norte 17 Norte 0 949.4 -0.6 66
2019-08-21 18:00:00 24.2 7 Norte 17 Norte 0 949.4 -1.1 68
2019-08-21 17:00:00 24.6 2 Norte 13 Norte 0.1 949.6 -1.6 72
2019-08-21 16:00:00 23 8 Norte 21 Norte 0 950 -1.5 78
2019-08-21 15:00:00 22.6 12 Norte 20 Norte 0 950.5 -1.2 83
2019-08-21 14:00:00 20.6 10 Norte 17 Norte 0.1 951.2 -0.3 99
2019-08-21 13:00:00 19.2 5 Norte 19 Norte 0.1 951.5 0.3 99
2019-08-21 12:00:00 19.5 9 Norte 19 Norte 0 951.7 0.6 99
2019-08-21 11:00:00 19.9 9 Norte 17 Noroeste 0.1 951.5 0.4 99
2019-08-21 10:00:00 19.4 13 Norte 24 Noroeste 0.1 951.2 0.5 99
2019-08-21 09:00:00 18.5 12 Noroeste 24 Norte 0 951.1 0.5 99
2019-08-21 08:00:00 18.4 19 Norte 34 Norte 0.1 951.1 0.3 99
2019-08-21 07:00:00 20.3 12 Norte 22 Norte 0.1 950.7 -0.4 98
2019-08-21 06:00:00 20.4 5 Norte 15 Norte 0 950.6 -0.7 98
2019-08-21 05:00:00 20.5 7 Noroeste 19 Norte 0.1 950.8 -0.5 98
2019-08-21 04:00:00 20.3 12 Noroeste 23 Noroeste 0.1 951.1 -0.4 98
2019-08-21 03:00:00 20.4 9 Norte 17 Norte 0.1 951.3 -0.1 98
2019-08-21 02:00:00 20.4 8 Norte 20 Norte 0 951.3 0.2 98
2019-08-21 01:00:00 20.1 5 Norte 17 Norte 0.1 951.5 0.7 98
2019-08-21 00:00:00 20 12 Norte 33 Norte 0.2 951.4 1.2 98